Chucky, Tennessee
Current Conditions -  °F | °C
As of 5:53 PM on Monday 24 Nov 2014 (Local Time) from KTRI Reporting Station
Few Clouds Few Clouds  
Wind Chill: 65°   Ceiling: Unl
Heat Index: 65°   Visibility: 10mi
Dew Point: 42°   Wind: 17mph
Humidity: 43%   Direction: 250°WSW
Pressure: 29.77"   Gusts: 26mph
Location:  36.249°N, 82.6746°W
Report Text: KTRI 242253Z 25015G23KT 10SM FEW045 18/06 A2977 RMK AO2 SLP067 T01830056
Loading
Personal Weather Stations






























Interactive Weather Map New forecast layout! Learn more

10-Day Weather Forecast

Advertisements
Track Severe Weather on mobile